Naschel, Argentina
Current Conditions -  °F | °C
As of 10:00 PM on Friday 28 Nov 2014 (Local Time) from SAOC Reporting Station
Clear Clear  
Wind Chill: 79°   Ceiling: Unl
Heat Index: 79°   Visibility: 6mi
Dew Point: 50°   Wind: 23mph
Humidity: 36%   Direction: 360°N
Pressure: 29.68"   Gusts: NA
Location:  32.92°S, 65.38°W
Report Text: SAOC 290100Z 36020KT CAVOK 26/10 Q1005
Loading
Personal Weather Stations






























Interactive Weather Map New forecast layout! Learn more

10-Day Weather Forecast

Advertisements
Track Severe Weather on mobile